^^
Saratoga-Weather Station Historical Data
Daily Summary for September 2, 2020 Units:  Both    English   Metric
Daily Weekly Monthly Yearly Custom
  High: Low: Average:
Temperature: 70.7 °F /  21.5 °C 54.7 °F /  12.6 °C 65.7 °F /  18.7 °C
Dew Point: 60.6 °F /  15.9 °C 52 °F /  11.1 °C 59 °F /  15 °C
Humidity: 92% 64% 80%
Wind Speed: 16.1mph /  25.9km/h - 3.8mph /  6.1km/h
Wind Gust: 22mph /  35.4km/h - -
Wind- - WSW
Pressure: 30 in /  1016.9 hPa 29.9 in /  1011.9 hPa -
Precipitation: 0.11 in /  2.8 mm    
Historical Graphs
 
 
Tabular Data for September 2, 2020
Time Temperature Dew Point Pressure Wind Wind Speed Wind Gust Humidity Rainfall Rate (Hourly) solar
00:00 63.7 °F /  17.6 °C 59.7 °F /  15.4 °C 29.9in /  1012.9hPa NNW 2.9mph /  4.7km/h 7mph /  11.3km/h 87% 0in /  0.0mm 0 W/m2
00:05 63.7 °F /  17.6 °C 59.7 °F /  15.4 °C 29.9in /  1012.9hPa WNW 0.9mph /  1.4km/h 9mph /  14.5km/h 87% 0in /  0.0mm 0 W/m2
00:10 63.7 °F /  17.6 °C 59.7 °F /  15.4 °C 29.9in /  1012.9hPa North 2.9mph /  4.7km/h 5mph /  8km/h 87% 0in /  0.0mm 0 W/m2
00:15 63.7 °F /  17.6 °C 59.4 °F /  15.2 °C 29.9in /  1012.9hPa NW 2.9mph /  4.7km/h 7mph /  11.3km/h 86% 0in /  0.0mm 0 W/m2
00:20 63.7 °F /  17.6 °C 59.4 °F /  15.2 °C 29.9in /  1012.9hPa NE 2.9mph /  4.7km/h 4mph /  6.4km/h 86% 0in /  0.0mm 0 W/m2
00:25 63.9 °F /  17.7 °C 59.5 °F /  15.3 °C 29.9in /  1012.9hPa WNW 4mph /  6.4km/h 4mph /  6.4km/h 86% 0in /  0.0mm 0 W/m2
00:30 63.9 °F /  17.7 °C 59.5 °F /  15.3 °C 29.9in /  1012.9hPa WNW 0.9mph /  1.4km/h 7mph /  11.3km/h 86% 0in /  0.0mm 0 W/m2
00:35 63.9 °F /  17.7 °C 59.9 °F /  15.5 °C 29.9in /  1012.9hPa North 2mph /  3.2km/h 7mph /  11.3km/h 87% 0in /  0.0mm 0 W/m2
00:40 63.9 °F /  17.7 °C 59.9 °F /  15.5 °C 29.9in /  1012.9hPa West 2.9mph /  4.7km/h 5mph /  8km/h 87% 0in /  0.0mm 0 W/m2
00:45 63.7 °F /  17.6 °C 59.7 °F /  15.4 °C 29.9in /  1012.9hPa NW 2mph /  3.2km/h 7mph /  11.3km/h 87% 0in /  0.0mm 0 W/m2
00:50 63.7 °F /  17.6 °C 60.1 °F /  15.6 °C 29.9in /  1012.9hPa West 8.9mph /  14.3km/h 10mph /  16.1km/h 88% 0in /  0.0mm 0 W/m2
00:55 63.7 °F /  17.6 °C 60.1 °F /  15.6 °C 29.9in /  1012.9hPa SSE 0.9mph /  1.4km/h 4mph /  6.4km/h 88% 0in /  0.0mm 0 W/m2
01:00 63.5 °F /  17.5 °C 59.9 °F /  15.5 °C 29.9in /  1012.9hPa NW 2mph /  3.2km/h 6mph /  9.7km/h 88% 0in /  0.0mm 0 W/m2
01:05 63.5 °F /  17.5 °C 59.9 °F /  15.5 °C 29.9in /  1012.9hPa NW 2.9mph /  4.7km/h 7mph /  11.3km/h 88% 0in /  0.0mm 0 W/m2
01:10 63.5 °F /  17.5 °C 59.9 °F /  15.5 °C 29.9in /  1012.9hPa North 2mph /  3.2km/h 9mph /  14.5km/h 88% 0in /  0.0mm 0 W/m2
01:15 63.3 °F /  17.4 °C 59.7 °F /  15.4 °C 29.9in /  1012.9hPa East 0.9mph /  1.4km/h 3mph /  4.8km/h 88% 0in /  0.0mm 0 W/m2
01:20 63.3 °F /  17.4 °C 59.7 °F /  15.4 °C 29.9in /  1012.9hPa North 2mph /  3.2km/h 9mph /  14.5km/h 88% 0in /  0.0mm 0 W/m2
01:25 63.3 °F /  17.4 °C 59.7 °F /  15.4 °C 29.9in /  1012.9hPa North 2.9mph /  4.7km/h 7mph /  11.3km/h 88% 0in /  0.0mm 0 W/m2
01:30 63.3 °F /  17.4 °C 60.1 °F /  15.6 °C 29.9in /  1012.5hPa NW 4mph /  6.4km/h 4mph /  6.4km/h 89% 0in /  0.0mm 0 W/m2
01:35 63.3 °F /  17.4 °C 60.1 °F /  15.6 °C 29.9in /  1012.5hPa NNW 4mph /  6.4km/h 8mph /  12.9km/h 89% 0in /  0.0mm 0 W/m2
01:40 63.3 °F /  17.4 °C 60.1 °F /  15.6 °C 29.9in /  1012.5hPa NNE 2mph /  3.2km/h 9mph /  14.5km/h 89% 0in /  0.0mm 0 W/m2
01:45 63.3 °F /  17.4 °C 60.1 °F /  15.6 °C 29.9in /  1012.5hPa West 6mph /  9.7km/h 12mph /  19.3km/h 89% 0in /  0.0mm 0 W/m2
01:50 63.3 °F /  17.4 °C 60.1 °F /  15.6 °C 29.9in /  1012.5hPa ENE 2.9mph /  4.7km/h 6mph /  9.7km/h 89% 0in /  0.0mm 0 W/m2
01:55 63.3 °F /  17.4 °C 60.1 °F /  15.6 °C 29.9in /  1012.5hPa NW 2.9mph /  4.7km/h 12mph /  19.3km/h 89% 0in /  0.0mm 0 W/m2
02:00 63.3 °F /  17.4 °C 60.1 °F /  15.6 °C 29.9in /  1012.5hPa NNE 2.9mph /  4.7km/h 12mph /  19.3km/h 89% 0in /  0.0mm 0 W/m2
02:05 63.3 °F /  17.4 °C 60.1 °F /  15.6 °C 29.9in /  1012.5hPa WNW 2.9mph /  4.7km/h 4mph /  6.4km/h 89% 0in /  0.0mm 0 W/m2
02:11 63.3 °F /  17.4 °C 60.1 °F /  15.6 °C 29.9in /  1012.5hPa West 0.9mph /  1.4km/h 12mph /  19.3km/h 89% 0in /  0.0mm 0 W/m2
02:16 63.3 °F /  17.4 °C 60.1 °F /  15.6 °C 29.9in /  1012.5hPa SW 2.9mph /  4.7km/h 8mph /  12.9km/h 89% 0in /  0.0mm 0 W/m2
02:21 63.5 °F /  17.5 °C 59.9 °F /  15.5 °C 29.9in /  1012.5hPa SSW 2mph /  3.2km/h 13mph /  20.9km/h 88% 0in /  0.0mm 0 W/m2
02:26 63.7 °F /  17.6 °C 60.1 °F /  15.6 °C 29.9in /  1012.5hPa West 6mph /  9.7km/h 6mph /  9.7km/h 88% 0in /  0.0mm 0 W/m2
02:31 63.7 °F /  17.6 °C 60.1 °F /  15.6 °C 29.9in /  1012.5hPa SW 2mph /  3.2km/h 13mph /  20.9km/h 88% 0in /  0.0mm 0 W/m2
02:36 63.9 °F /  17.7 °C 60.3 °F /  15.7 °C 29.9in /  1012.9hPa WSW 4mph /  6.4km/h 4mph /  6.4km/h 88% 0in /  0.0mm 0 W/m2
02:41 63.9 °F /  17.7 °C 60.3 °F /  15.7 °C 29.9in /  1012.9hPa Calm   4mph /  6.4km/h 88% 0in /  0.0mm 0 W/m2
02:46 63.9 °F /  17.7 °C 60.3 °F /  15.7 °C 29.9in /  1012.9hPa Calm   4mph /  6.4km/h 88% 0in /  0.0mm 0 W/m2
02:51 63.7 °F /  17.6 °C 60.1 °F /  15.6 °C 29.9in /  1012.9hPa SSE 4mph /  6.4km/h 10mph /  16.1km/h 88% 0in /  0.0mm 0 W/m2
02:56 63.7 °F /  17.6 °C 60.1 °F /  15.6 °C 29.9in /  1012.9hPa NNW 2mph /  3.2km/h 3mph /  4.8km/h 88% 0in /  0.0mm 0 W/m2
03:01 63.7 °F /  17.6 °C 60.1 °F /  15.6 °C 29.9in /  1012.5hPa NNE 4.9mph /  7.9km/h 8mph /  12.9km/h 88% 0in /  0.0mm 0 W/m2
03:06 63.7 °F /  17.6 °C 60.1 °F /  15.6 °C 29.9in /  1012.9hPa NNW 4.9mph /  7.9km/h 5mph /  8km/h 88% 0in /  0.0mm 0 W/m2
03:11 63.9 °F /  17.7 °C 59.9 °F /  15.5 °C 29.9in /  1012.5hPa NNW 2mph /  3.2km/h 9mph /  14.5km/h 87% 0in /  0.0mm 0 W/m2
03:16 64 °F /  17.8 °C 59.7 °F /  15.4 °C 29.9in /  1012.5hPa NW 4mph /  6.4km/h 5mph /  8km/h 86% 0in /  0.0mm 0 W/m2
03:21 64 °F /  17.8 °C 59.7 °F /  15.4 °C 29.9in /  1012.9hPa NW 0.9mph /  1.4km/h 7mph /  11.3km/h 86% 0in /  0.0mm 0 W/m2
03:26 64 °F /  17.8 °C 60.1 °F /  15.6 °C 29.9in /  1012.9hPa NW 2mph /  3.2km/h 9mph /  14.5km/h 87% 0in /  0.0mm 0 W/m2
03:31 63.9 °F /  17.7 °C 59.9 °F /  15.5 °C 29.9in /  1012.9hPa North 2mph /  3.2km/h 5mph /  8km/h 87% 0in /  0.0mm 0 W/m2
03:36 63.9 °F /  17.7 °C 59.9 °F /  15.5 °C 29.9in /  1012.9hPa North 4mph /  6.4km/h 7mph /  11.3km/h 87% 0in /  0.0mm 0 W/m2
03:41 63.9 °F /  17.7 °C 59.9 °F /  15.5 °C 29.9in /  1012.5hPa WSW 2mph /  3.2km/h 3mph /  4.8km/h 87% 0in /  0.0mm 0 W/m2
03:46 63.9 °F /  17.7 °C 59.9 °F /  15.5 °C 29.9in /  1012.5hPa NW 2.9mph /  4.7km/h 5mph /  8km/h 87% 0in /  0.0mm 0 W/m2
03:56 63.9 °F /  17.7 °C 59.9 °F /  15.5 °C 29.9in /  1012.5hPa WNW 2.9mph /  4.7km/h 6mph /  9.7km/h 87% 0in /  0.0mm 0 W/m2
04:01 64 °F /  17.8 °C 60.1 °F /  15.6 °C 29.9in /  1012.5hPa SW 2.9mph /  4.7km/h 5mph /  8km/h 87% 0in /  0.0mm 0 W/m2
04:06 64 °F /  17.8 °C 60.1 °F /  15.6 °C 29.9in /  1012.5hPa SW 2.9mph /  4.7km/h 8mph /  12.9km/h 87% 0in /  0.0mm 0 W/m2
04:11 64 °F /  17.8 °C 60.1 °F /  15.6 °C 29.9in /  1012.5hPa ESE 2.9mph /  4.7km/h 6mph /  9.7km/h 87% 0in /  0.0mm 0 W/m2
04:16 64 °F /  17.8 °C 60.1 °F /  15.6 °C 29.9in /  1012.5hPa West 2.9mph /  4.7km/h 3mph /  4.8km/h 87% 0in /  0.0mm 0 W/m2
04:21 64 °F /  17.8 °C 60.1 °F /  15.6 °C 29.9in /  1012.5hPa WSW 2mph /  3.2km/h 7mph /  11.3km/h 87% 0in /  0.0mm 0 W/m2
04:26 64.2 °F /  17.9 °C 60.3 °F /  15.7 °C 29.9in /  1012.5hPa NNE 2.9mph /  4.7km/h 11mph /  17.7km/h 87% 0in /  0.0mm 0 W/m2
04:31 64.2 °F /  17.9 °C 59.9 °F /  15.5 °C 29.9in /  1012.5hPa ENE 2.9mph /  4.7km/h 5mph /  8km/h 86% 0in /  0.0mm 0 W/m2
04:36 64.2 °F /  17.9 °C 59.9 °F /  15.5 °C 29.9in /  1012.5hPa East 2.9mph /  4.7km/h 11mph /  17.7km/h 86% 0in /  0.0mm 0 W/m2
04:41 64.2 °F /  17.9 °C 59.9 °F /  15.5 °C 29.9in /  1012.5hPa WNW 4mph /  6.4km/h 6mph /  9.7km/h 86% 0in /  0.0mm 0 W/m2
04:46 64.4 °F /  18 °C 60.1 °F /  15.6 °C 29.9in /  1012.5hPa NNW 4mph /  6.4km/h 9mph /  14.5km/h 86% 0in /  0.0mm 0 W/m2
04:51 64.4 °F /  18 °C 60.1 °F /  15.6 °C 29.9in /  1012.5hPa WNW 2.9mph /  4.7km/h 7mph /  11.3km/h 86% 0in /  0.0mm 0 W/m2
04:56 64.4 °F /  18 °C 60.1 °F /  15.6 °C 29.9in /  1012.5hPa NE 2mph /  3.2km/h 9mph /  14.5km/h 86% 0in /  0.0mm 0 W/m2
05:01 64.2 °F /  17.9 °C 59.9 °F /  15.5 °C 29.9in /  1012.5hPa NW 2.9mph /  4.7km/h 6mph /  9.7km/h 86% 0in /  0.0mm 0 W/m2
05:06 64.4 °F /  18 °C 60.1 °F /  15.6 °C 29.9in /  1012.5hPa ENE 2.9mph /  4.7km/h 5mph /  8km/h 86% 0in /  0.0mm 0 W/m2
05:11 64.6 °F /  18.1 °C 59.9 °F /  15.5 °C 29.9in /  1012.5hPa Calm   3mph /  4.8km/h 85% 0in /  0.0mm 0 W/m2
05:16 64.6 °F /  18.1 °C 59.9 °F /  15.5 °C 29.9in /  1012.5hPa WNW 2.9mph /  4.7km/h 5mph /  8km/h 85% 0in /  0.0mm 0 W/m2
05:21 64.6 °F /  18.1 °C 59.9 °F /  15.5 °C 29.9in /  1012.5hPa NW 6mph /  9.7km/h 8mph /  12.9km/h 85% 0in /  0.0mm 0 W/m2
05:26 64.6 °F /  18.1 °C 59.9 °F /  15.5 °C 29.9in /  1012.9hPa West 2.9mph /  4.7km/h 4mph /  6.4km/h 85% 0in /  0.0mm 0 W/m2
05:31 64.6 °F /  18.1 °C 59.9 °F /  15.5 °C 29.9in /  1012.9hPa Calm   3mph /  4.8km/h 85% 0in /  0.0mm 0 W/m2
05:36 64.6 °F /  18.1 °C 59.9 °F /  15.5 °C 29.9in /  1012.9hPa NE 2.9mph /  4.7km/h 5mph /  8km/h 85% 0in /  0.0mm 0 W/m2
05:41 64.8 °F /  18.2 °C 60.1 °F /  15.6 °C 29.9in /  1012.9hPa WNW 2mph /  3.2km/h 6mph /  9.7km/h 85% 0in /  0.0mm 0 W/m2
05:46 64.8 °F /  18.2 °C 60.1 °F /  15.6 °C 29.9in /  1012.9hPa West 2.9mph /  4.7km/h 7mph /  11.3km/h 85% 0in /  0.0mm 0 W/m2
05:51 64.8 °F /  18.2 °C 60.1 °F /  15.6 °C 29.9in /  1012.9hPa NW 2mph /  3.2km/h 6mph /  9.7km/h 85% 0in /  0.0mm 0 W/m2
05:56 64.8 °F /  18.2 °C 59.9 °F /  15.5 °C 29.9in /  1012.9hPa SW 2.9mph /  4.7km/h 7mph /  11.3km/h 84% 0in /  0.0mm 0 W/m2
06:01 64.8 °F /  18.2 °C 59.9 °F /  15.5 °C 29.9in /  1012.9hPa SSE 10.1mph /  16.3km/h 10mph /  16.1km/h 84% 0in /  0.0mm 0 W/m2
06:06 64.6 °F /  18.1 °C 59.7 °F /  15.4 °C 29.9in /  1012.5hPa Calm   3mph /  4.8km/h 84% 0in /  0.0mm 0 W/m2
06:11 64.6 °F /  18.1 °C 59.7 °F /  15.4 °C 29.9in /  1012.5hPa East 6mph /  9.7km/h 10mph /  16.1km/h 84% 0in /  0.0mm 0 W/m2
06:17 64.6 °F /  18.1 °C 59.7 °F /  15.4 °C 29.9in /  1012.5hPa South 4.9mph /  7.9km/h 10mph /  16.1km/h 84% 0in /  0.0mm 0 W/m2
06:22 64.6 °F /  18.1 °C 59.7 °F /  15.4 °C 29.9in /  1012.5hPa NNW 4mph /  6.4km/h 5mph /  8km/h 84% 0in /  0.0mm 0 W/m2
06:27 64.8 °F /  18.2 °C 59.9 °F /  15.5 °C 29.9in /  1012.5hPa NW 2mph /  3.2km/h 10mph /  16.1km/h 84% 0in /  0.0mm 0 W/m2
06:32 64.8 °F /  18.2 °C 59.9 °F /  15.5 °C 29.9in /  1012.9hPa ESE 2.9mph /  4.7km/h 6mph /  9.7km/h 84% 0in /  0.0mm 0 W/m2
06:37 64.8 °F /  18.2 °C 59.9 °F /  15.5 °C 29.9in /  1012.5hPa WSW 2.9mph /  4.7km/h 3mph /  4.8km/h 84% 0in /  0.0mm 0 W/m2
06:42 64.8 °F /  18.2 °C 59.9 °F /  15.5 °C 29.9in /  1012.9hPa NW 2.9mph /  4.7km/h 4mph /  6.4km/h 84% 0in /  0.0mm 0 W/m2
06:47 64.8 °F /  18.2 °C 59.5 °F /  15.3 °C 29.9in /  1012.9hPa WNW 2mph /  3.2km/h 6mph /  9.7km/h 83% 0in /  0.0mm 0 W/m2
06:52 64.8 °F /  18.2 °C 59.5 °F /  15.3 °C 29.9in /  1012.9hPa North 4.9mph /  7.9km/h 7mph /  11.3km/h 83% 0in /  0.0mm 0 W/m2
06:57 64.8 °F /  18.2 °C 59.5 °F /  15.3 °C 29.9in /  1012.9hPa East 4mph /  6.4km/h 15mph /  24.1km/h 83% 0in /  0.0mm 0 W/m2
07:02 64.9 °F /  18.3 °C 59.7 °F /  15.4 °C 29.9in /  1012.5hPa NW 4.9mph /  7.9km/h 10mph /  16.1km/h 83% 0in /  0.0mm 0 W/m2
07:07 64.9 °F /  18.3 °C 59.4 °F /  15.2 °C 29.9in /  1012.5hPa West 4mph /  6.4km/h 10mph /  16.1km/h 82% 0in /  0.0mm 0 W/m2
07:12 64.9 °F /  18.3 °C 59.4 °F /  15.2 °C 29.9in /  1012.9hPa North 4mph /  6.4km/h 8mph /  12.9km/h 82% 0in /  0.0mm 0 W/m2
07:17 65.1 °F /  18.4 °C 59.5 °F /  15.3 °C 29.9in /  1012.5hPa WNW 4mph /  6.4km/h 12mph /  19.3km/h 82% 0in /  0.0mm 0 W/m2
07:22 64.9 °F /  18.3 °C 59.4 °F /  15.2 °C 29.9in /  1012.9hPa SW 10.1mph /  16.3km/h 10mph /  16.1km/h 82% 0in /  0.0mm 0 W/m2
07:27 64.9 °F /  18.3 °C 59.4 °F /  15.2 °C 29.9in /  1012.5hPa WNW 6mph /  9.7km/h 9mph /  14.5km/h 82% 0in /  0.0mm 0 W/m2
07:32 64.9 °F /  18.3 °C 59.4 °F /  15.2 °C 29.9in /  1012.5hPa WNW 2mph /  3.2km/h 6mph /  9.7km/h 82% 0in /  0.0mm 0 W/m2
07:37 64.9 °F /  18.3 °C 59.4 °F /  15.2 °C 29.9in /  1012.5hPa NNW 4.9mph /  7.9km/h 10mph /  16.1km/h 82% 0in /  0.0mm 5 W/m2
07:42 64.9 °F /  18.3 °C 59.4 °F /  15.2 °C 29.9in /  1012.9hPa NE 2mph /  3.2km/h 4mph /  6.4km/h 82% 0in /  0.0mm 7 W/m2
07:47 64.8 °F /  18.2 °C 59.2 °F /  15.1 °C 29.9in /  1012.9hPa NNW 2mph /  3.2km/h 6mph /  9.7km/h 82% 0in /  0.0mm 9 W/m2
07:52 64.8 °F /  18.2 °C 59.2 °F /  15.1 °C 29.9in /  1012.9hPa North 2.9mph /  4.7km/h 5mph /  8km/h 82% 0in /  0.0mm 11 W/m2
07:57 64.8 °F /  18.2 °C 59.2 °F /  15.1 °C 29.9in /  1012.9hPa WNW 2.9mph /  4.7km/h 7mph /  11.3km/h 82% 0in /  0.0mm 14 W/m2
08:02 64.8 °F /  18.2 °C 59.2 °F /  15.1 °C 29.9in /  1012.9hPa North 2.9mph /  4.7km/h 4mph /  6.4km/h 82% 0in /  0.0mm 18 W/m2
08:07 64.8 °F /  18.2 °C 59.2 °F /  15.1 °C 29.9in /  1013.2hPa NW 2.9mph /  4.7km/h 5mph /  8km/h 82% 0in /  0.0mm 21 W/m2
08:12 64.9 °F /  18.3 °C 59.4 °F /  15.2 °C 29.9in /  1013.2hPa SW 2mph /  3.2km/h 7mph /  11.3km/h 82% 0in /  0.0mm 21 W/m2
08:17 64.9 °F /  18.3 °C 59 °F /  15 °C 29.9in /  1012.9hPa SW 4mph /  6.4km/h 12mph /  19.3km/h 81% 0in /  0.0mm 23 W/m2
08:22 64.9 °F /  18.3 °C 59 °F /  15 °C 29.9in /  1013.2hPa Calm   16mph /  25.7km/h 81% 0in /  0.0mm 25 W/m2
08:27 64.9 °F /  18.3 °C 59 °F /  15 °C 29.9in /  1013.2hPa West 6mph /  9.7km/h 14mph /  22.5km/h 81% 0in /  0.0mm 30 W/m2
08:32 64.9 °F /  18.3 °C 59 °F /  15 °C 29.9in /  1013.2hPa NNW 2.9mph /  4.7km/h 16mph /  25.7km/h 81% 0in /  0.0mm 42 W/m2
08:37 64.9 °F /  18.3 °C 59 °F /  15 °C 29.9in /  1013.2hPa NW 4mph /  6.4km/h 5mph /  8km/h 81% 0in /  0.0mm 40 W/m2
08:42 64.9 °F /  18.3 °C 59 °F /  15 °C 29.9in /  1013.5hPa WSW 13mph /  20.9km/h 13mph /  20.9km/h 81% 0in /  0.0mm 37 W/m2
08:47 64.9 °F /  18.3 °C 59 °F /  15 °C 29.9in /  1013.2hPa NE 4mph /  6.4km/h 7mph /  11.3km/h 81% 0in /  0.0mm 42 W/m2
08:52 64.9 °F /  18.3 °C 59 °F /  15 °C 29.9in /  1013.2hPa NW 2mph /  3.2km/h 5mph /  8km/h 81% 0in /  0.0mm 40 W/m2
08:57 65.1 °F /  18.4 °C 59.2 °F /  15.1 °C 29.9in /  1013.2hPa WSW 2mph /  3.2km/h 8mph /  12.9km/h 81% 0in /  0.0mm 46 W/m2
09:02 65.1 °F /  18.4 °C 59.2 °F /  15.1 °C 29.9in /  1013.2hPa NNW 0.9mph /  1.4km/h 4mph /  6.4km/h 81% 0in /  0.0mm 40 W/m2
09:07 65.1 °F /  18.4 °C 59.2 °F /  15.1 °C 29.9in /  1013.2hPa NW 4.9mph /  7.9km/h 8mph /  12.9km/h 81% 0in /  0.0mm 51 W/m2
09:12 65.1 °F /  18.4 °C 59.2 °F /  15.1 °C 29.9in /  1013.2hPa WNW 0.9mph /  1.4km/h 8mph /  12.9km/h 81% 0in /  0.0mm 63 W/m2
09:17 65.1 °F /  18.4 °C 59.2 °F /  15.1 °C 29.9in /  1013.2hPa SE 0.9mph /  1.4km/h 10mph /  16.1km/h 81% 0in /  0.0mm 62 W/m2
09:22 65.1 °F /  18.4 °C 59.2 °F /  15.1 °C 29.9in /  1013.2hPa NE 2mph /  3.2km/h 4mph /  6.4km/h 81% 0in /  0.0mm 54 W/m2
09:27 65.1 °F /  18.4 °C 59.2 °F /  15.1 °C 29.9in /  1013.2hPa NNW 4mph /  6.4km/h 10mph /  16.1km/h 81% 0in /  0.0mm 53 W/m2
09:32 65.1 °F /  18.4 °C 59.2 °F /  15.1 °C 29.9in /  1013.5hPa ESE 0.9mph /  1.4km/h 6mph /  9.7km/h 81% 0in /  0.0mm 60 W/m2
09:37 65.3 °F /  18.5 °C 59.4 °F /  15.2 °C 29.9in /  1013.5hPa WNW 6.9mph /  11.1km/h 7mph /  11.3km/h 81% 0in /  0.0mm 70 W/m2
09:42 65.3 °F /  18.5 °C 59.4 °F /  15.2 °C 29.9in /  1013.5hPa NNE 8.1mph /  13km/h 9mph /  14.5km/h 81% 0in /  0.0mm 53 W/m2
09:47 65.5 °F /  18.6 °C 59.5 °F /  15.3 °C 29.9in /  1013.5hPa North 4mph /  6.4km/h 6mph /  9.7km/h 81% 0in /  0.0mm 76 W/m2
09:52 65.5 °F /  18.6 °C 59.5 °F /  15.3 °C 29.9in /  1013.2hPa North 0.9mph /  1.4km/h 5mph /  8km/h 81% 0in /  0.0mm 109 W/m2
09:57 65.5 °F /  18.6 °C 59.5 °F /  15.3 °C 29.9in /  1013.2hPa NW 8.1mph /  13km/h 12mph /  19.3km/h 81% 0in /  0.0mm 125 W/m2
10:02 65.7 °F /  18.7 °C 59.4 °F /  15.2 °C 29.9in /  1013.2hPa SSW 2mph /  3.2km/h 12mph /  19.3km/h 80% 0in /  0.0mm 130 W/m2
10:07 65.7 °F /  18.7 °C 59.4 °F /  15.2 °C 29.9in /  1013.2hPa WNW 6.9mph /  11.1km/h 11mph /  17.7km/h 80% 0in /  0.0mm 128 W/m2
10:12 65.8 °F /  18.8 °C 59.5 °F /  15.3 °C 29.9in /  1013.2hPa ENE 2mph /  3.2km/h 12mph /  19.3km/h 80% 0in /  0.0mm 146 W/m2
10:17 65.8 °F /  18.8 °C 59.2 °F /  15.1 °C 29.9in /  1013.2hPa NNW 6mph /  9.7km/h 9mph /  14.5km/h 79% 0in /  0.0mm 162 W/m2
10:22 66 °F /  18.9 °C 59.4 °F /  15.2 °C 29.9in /  1013.5hPa East 4mph /  6.4km/h 6mph /  9.7km/h 79% 0in /  0.0mm 160 W/m2
10:27 66 °F /  18.9 °C 59.4 °F /  15.2 °C 29.9in /  1013.2hPa NNW 4.9mph /  7.9km/h 9mph /  14.5km/h 79% 0in /  0.0mm 163 W/m2
10:32 66.4 °F /  19.1 °C 59.7 °F /  15.4 °C 29.9in /  1013.2hPa WNW 2mph /  3.2km/h 5mph /  8km/h 79% 0in /  0.0mm 165 W/m2
10:37 66.4 °F /  19.1 °C 59.4 °F /  15.2 °C 29.9in /  1013.2hPa NNW 4mph /  6.4km/h 8mph /  12.9km/h 78% 0in /  0.0mm 171 W/m2
10:42 66.6 °F /  19.2 °C 59.2 °F /  15.1 °C 29.9in /  1012.9hPa West 4mph /  6.4km/h 12mph /  19.3km/h 77% 0in /  0.0mm 174 W/m2
10:47 66.7 °F /  19.3 °C 59.4 °F /  15.2 °C 29.9in /  1012.9hPa ENE 2.9mph /  4.7km/h 8mph /  12.9km/h 77% 0in /  0.0mm 179 W/m2
10:52 66.7 °F /  19.3 °C 59.4 °F /  15.2 °C 29.9in /  1012.9hPa NW 4mph /  6.4km/h 12mph /  19.3km/h 77% 0in /  0.0mm 178 W/m2
10:57 66.9 °F /  19.4 °C 59.2 °F /  15.1 °C 29.9in /  1012.9hPa NW 6mph /  9.7km/h 7mph /  11.3km/h 76% 0in /  0.0mm 178 W/m2
11:02 67.1 °F /  19.5 °C 58.8 °F /  14.9 °C 29.9in /  1012.9hPa NW 2.9mph /  4.7km/h 12mph /  19.3km/h 75% 0in /  0.0mm 174 W/m2
11:07 67.3 °F /  19.6 °C 59 °F /  15 °C 29.9in /  1012.9hPa West 2mph /  3.2km/h 5mph /  8km/h 75% 0in /  0.0mm 174 W/m2
11:12 67.3 °F /  19.6 °C 59 °F /  15 °C 29.9in /  1012.9hPa NW 2mph /  3.2km/h 9mph /  14.5km/h 75% 0in /  0.0mm 174 W/m2
11:17 67.5 °F /  19.7 °C 58.8 °F /  14.9 °C 29.9in /  1012.9hPa West 4mph /  6.4km/h 16mph /  25.7km/h 74% 0in /  0.0mm 176 W/m2
11:22 67.6 °F /  19.8 °C 59 °F /  15 °C 29.9in /  1012.9hPa West 0.9mph /  1.4km/h 9mph /  14.5km/h 74% 0in /  0.0mm 172 W/m2
11:27 67.6 °F /  19.8 °C 58.6 °F /  14.8 °C 29.9in /  1013.2hPa West 4mph /  6.4km/h 16mph /  25.7km/h 73% 0in /  0.0mm 179 W/m2
11:32 68 °F /  20 °C 59 °F /  15 °C 29.9in /  1012.9hPa NNW 4mph /  6.4km/h 8mph /  12.9km/h 73% 0in /  0.0mm 188 W/m2
11:37 68.2 °F /  20.1 °C 58.8 °F /  14.9 °C 29.9in /  1013.2hPa WNW 4.9mph /  7.9km/h 8mph /  12.9km/h 72% 0in /  0.0mm 179 W/m2
11:42 68.4 °F /  20.2 °C 59 °F /  15 °C 29.9in /  1013.2hPa SW 2mph /  3.2km/h 4mph /  6.4km/h 72% 0in /  0.0mm 179 W/m2
11:47 68.5 °F /  20.3 °C 58.8 °F /  14.9 °C 29.9in /  1013.2hPa West 8.9mph /  14.3km/h 9mph /  14.5km/h 71% 0in /  0.0mm 260 W/m2
11:52 68.7 °F /  20.4 °C 59 °F /  15 °C 29.9in /  1013.2hPa NNE 6mph /  9.7km/h 9mph /  14.5km/h 71% 0in /  0.0mm 362 W/m2
11:57 68.9 °F /  20.5 °C 58.6 °F /  14.8 °C 29.9in /  1012.9hPa WNW 11mph /  17.7km/h 11mph /  17.7km/h 70% 0in /  0.0mm 260 W/m2
12:02 68.9 °F /  20.5 °C 58.3 °F /  14.6 °C 29.9in /  1013.2hPa SW 2.9mph /  4.7km/h 12mph /  19.3km/h 69% 0in /  0.0mm 200 W/m2
12:07 69.1 °F /  20.6 °C 58.5 °F /  14.7 °C 29.9in /  1013.2hPa NE 2mph /  3.2km/h 6mph /  9.7km/h 69% 0in /  0.0mm 186 W/m2
12:12 69.1 °F /  20.6 °C 58.5 °F /  14.7 °C 29.9in /  1013.2hPa North 2.9mph /  4.7km/h 17mph /  27.4km/h 69% 0in /  0.0mm 183 W/m2
12:17 69.3 °F /  20.7 °C 58.6 °F /  14.8 °C 29.9in /  1012.9hPa ENE 0.9mph /  1.4km/h 7mph /  11.3km/h 69% 0in /  0.0mm 218 W/m2
12:22 69.4 °F /  20.8 °C 58.5 °F /  14.7 °C 29.9in /  1012.9hPa NW 4mph /  6.4km/h 9mph /  14.5km/h 68% 0in /  0.0mm 179 W/m2
12:27 69.4 °F /  20.8 °C 58.5 °F /  14.7 °C 29.9in /  1012.9hPa WNW 2.9mph /  4.7km/h 7mph /  11.3km/h 68% 0in /  0.0mm 171 W/m2
12:32 69.4 °F /  20.8 °C 57.9 °F /  14.4 °C 29.9in /  1012.9hPa South 4.9mph /  7.9km/h 7mph /  11.3km/h 67% 0in /  0.0mm 167 W/m2
12:37 69.6 °F /  20.9 °C 58.1 °F /  14.5 °C 29.9in /  1012.9hPa WSW 2.9mph /  4.7km/h 15mph /  24.1km/h 67% 0in /  0.0mm 162 W/m2
12:42 69.6 °F /  20.9 °C 58.1 °F /  14.5 °C 29.9in /  1012.9hPa NNW 2.9mph /  4.7km/h 10mph /  16.1km/h 67% 0in /  0.0mm 148 W/m2
12:47 69.6 °F /  20.9 °C 57.7 °F /  14.3 °C 29.9in /  1012.9hPa SW 2.9mph /  4.7km/h 15mph /  24.1km/h 66% 0in /  0.0mm 135 W/m2
12:52 69.6 °F /  20.9 °C 58.1 °F /  14.5 °C 29.9in /  1012.9hPa West 4mph /  6.4km/h 6mph /  9.7km/h 67% 0in /  0.0mm 134 W/m2
12:57 69.4 °F /  20.8 °C 57.9 °F /  14.4 °C 29.9in /  1012.5hPa WSW 4.9mph /  7.9km/h 9mph /  14.5km/h 67% 0in /  0.0mm 107 W/m2
13:03 69.4 °F /  20.8 °C 57.9 °F /  14.4 °C 29.9in /  1012.5hPa NE 2mph /  3.2km/h 10mph /  16.1km/h 67% 0in /  0.0mm 151 W/m2
13:08 69.4 °F /  20.8 °C 57.9 °F /  14.4 °C 29.9in /  1012.5hPa NE 0.9mph /  1.4km/h 8mph /  12.9km/h 67% 0in /  0.0mm 181 W/m2
13:13 69.3 °F /  20.7 °C 57.9 °F /  14.4 °C 29.9in /  1012.9hPa South 6mph /  9.7km/h 12mph /  19.3km/h 67% 0in /  0.0mm 179 W/m2
13:18 69.3 °F /  20.7 °C 57.9 °F /  14.4 °C 29.9in /  1012.5hPa WNW 0.9mph /  1.4km/h 7mph /  11.3km/h 67% 0in /  0.0mm 190 W/m2
13:23 69.3 °F /  20.7 °C 58.3 °F /  14.6 °C 29.9in /  1012.5hPa NW 2.9mph /  4.7km/h 10mph /  16.1km/h 68% 0in /  0.0mm 178 W/m2
13:28 69.4 °F /  20.8 °C 57.9 °F /  14.4 °C 29.9in /  1012.5hPa NNE 4mph /  6.4km/h 8mph /  12.9km/h 67% 0in /  0.0mm 197 W/m2
13:33 69.4 °F /  20.8 °C 57.6 °F /  14.2 °C 29.9in /  1012.2hPa West 2mph /  3.2km/h 5mph /  8km/h 66% 0in /  0.0mm 141 W/m2
13:38 69.4 °F /  20.8 °C 57.9 °F /  14.4 °C 29.9in /  1012.5hPa West 2.9mph /  4.7km/h 8mph /  12.9km/h 67% 0in /  0.0mm 146 W/m2
13:43 69.6 °F /  20.9 °C 57.7 °F /  14.3 °C 29.9in /  1012.5hPa NNE 4mph /  6.4km/h 10mph /  16.1km/h 66% 0in /  0.0mm 132 W/m2
13:48 70 °F /  21.1 °C 58.1 °F /  14.5 °C 29.9in /  1012.2hPa SW 4mph /  6.4km/h 13mph /  20.9km/h 66% 0in /  0.0mm 211 W/m2
13:53 70 °F /  21.1 °C 58.1 °F /  14.5 °C 29.9in /  1012.5hPa West 6mph /  9.7km/h 9mph /  14.5km/h 66% 0in /  0.0mm 137 W/m2
13:58 70.2 °F /  21.2 °C 58.3 °F /  14.6 °C 29.9in /  1012.5hPa NW 6mph /  9.7km/h 14mph /  22.5km/h 66% 0in /  0.0mm 114 W/m2
14:03 70.2 °F /  21.2 °C 58.3 °F /  14.6 °C 29.9in /  1012.5hPa NW 2.9mph /  4.7km/h 6mph /  9.7km/h 66% 0in /  0.0mm 70 W/m2
14:08 70.3 °F /  21.3 °C 58.1 °F /  14.5 °C 29.9in /  1012.5hPa West 2mph /  3.2km/h 15mph /  24.1km/h 65% 0in /  0.0mm 62 W/m2
14:13 70.3 °F /  21.3 °C 58.1 °F /  14.5 °C 29.9in /  1012.2hPa NW 4mph /  6.4km/h 7mph /  11.3km/h 65% 0in /  0.0mm 54 W/m2
14:18 70.3 °F /  21.3 °C 58.1 °F /  14.5 °C 29.9in /  1012.2hPa NW 4mph /  6.4km/h 14mph /  22.5km/h 65% 0in /  0.0mm 44 W/m2
14:23 70.3 °F /  21.3 °C 57.6 °F /  14.2 °C 29.9in /  1012.5hPa SW 8.9mph /  14.3km/h 15mph /  24.1km/h 64% 0in /  0.0mm 49 W/m2
14:28 70.3 °F /  21.3 °C 58.1 °F /  14.5 °C 29.9in /  1012.2hPa West 2.9mph /  4.7km/h 12mph /  19.3km/h 65% 0in /  0.0mm 104 W/m2
14:33 70.5 °F /  21.4 °C 57.7 °F /  14.3 °C 29.9in /  1012.2hPa North 2.9mph /  4.7km/h 6mph /  9.7km/h 64% 0in /  0.0mm 83 W/m2
14:38 70.5 °F /  21.4 °C 57.7 °F /  14.3 °C 29.9in /  1012.2hPa NNW 8.1mph /  13km/h 8mph /  12.9km/h 64% 0in /  0.0mm 72 W/m2
14:43 70.7 °F /  21.5 °C 57.9 °F /  14.4 °C 29.9in /  1012.2hPa WNW 4.9mph /  7.9km/h 12mph /  19.3km/h 64% 0in /  0.0mm 100 W/m2
14:48 70.5 °F /  21.4 °C 57.7 °F /  14.3 °C 29.9in /  1012.2hPa NNE 2mph /  3.2km/h 10mph /  16.1km/h 64% 0in /  0.0mm 104 W/m2
14:53 70.3 °F /  21.3 °C 57.6 °F /  14.2 °C 29.9in /  1012.2hPa WNW 0.9mph /  1.4km/h 8mph /  12.9km/h 64% 0in /  0.0mm 113 W/m2
14:58 70.2 °F /  21.2 °C 57.4 °F /  14.1 °C 29.9in /  1012.2hPa WNW 6.9mph /  11.1km/h 12mph /  19.3km/h 64% 0in /  0.0mm 95 W/m2
15:03 70.2 °F /  21.2 °C 57.4 °F /  14.1 °C 29.9in /  1012.2hPa NW 0.9mph /  1.4km/h 7mph /  11.3km/h 64% 0in /  0.0mm 104 W/m2
15:08 70.2 °F /  21.2 °C 57.9 °F /  14.4 °C 29.9in /  1012.2hPa West 6mph /  9.7km/h 6mph /  9.7km/h 65% 0in /  0.0mm 84 W/m2
15:13 70.2 °F /  21.2 °C 57.4 °F /  14.1 °C 29.9in /  1012.2hPa NE 4.9mph /  7.9km/h 7mph /  11.3km/h 64% 0in /  0.0mm 109 W/m2
15:18 70.3 °F /  21.3 °C 58.1 °F /  14.5 °C 29.9in /  1011.9hPa SW 2mph /  3.2km/h 9mph /  14.5km/h 65% 0in /  0.0mm 86 W/m2
15:23 70.2 °F /  21.2 °C 57.9 °F /  14.4 °C 29.9in /  1012.2hPa NW 2mph /  3.2km/h 8mph /  12.9km/h 65% 0in /  0.0mm 72 W/m2
15:28 70.3 °F /  21.3 °C 58.1 °F /  14.5 °C 29.9in /  1012.2hPa SSE 4mph /  6.4km/h 10mph /  16.1km/h 65% 0in /  0.0mm 86 W/m2
15:33 70.2 °F /  21.2 °C 57.9 °F /  14.4 °C 29.9in /  1012.2hPa WNW 12.1mph /  19.5km/h 16mph /  25.7km/h 65% 0in /  0.0mm 79 W/m2
15:38 70.2 °F /  21.2 °C 57.9 °F /  14.4 °C 29.9in /  1012.2hPa NNW 4.9mph /  7.9km/h 8mph /  12.9km/h 65% 0in /  0.0mm 76 W/m2
15:43 70.2 °F /  21.2 °C 58.3 °F /  14.6 °C 29.9in /  1011.9hPa ENE 0.9mph /  1.4km/h 16mph /  25.7km/h 66% 0in /  0.0mm 39 W/m2
15:48 70 °F /  21.1 °C 58.1 °F /  14.5 °C 29.9in /  1011.9hPa NNE 0.9mph /  1.4km/h 2mph /  3.2km/h 66% 0in /  0.0mm 54 W/m2
15:53 70 °F /  21.1 °C 58.1 °F /  14.5 °C 29.9in /  1011.9hPa WNW 0.9mph /  1.4km/h 5mph /  8km/h 66% 0in /  0.0mm 42 W/m2
15:58 70 °F /  21.1 °C 58.5 °F /  14.7 °C 29.9in /  1011.9hPa North 0.9mph /  1.4km/h 3mph /  4.8km/h 67% 0in /  0.0mm 35 W/m2
16:03 69.8 °F /  21 °C 58.3 °F /  14.6 °C 29.9in /  1011.9hPa NNW 2mph /  3.2km/h 6mph /  9.7km/h 67% 0in /  0.0mm 19 W/m2
16:08 69.8 °F /  21 °C 58.3 °F /  14.6 °C 29.9in /  1011.9hPa NW 2mph /  3.2km/h 3mph /  4.8km/h 67% 0in /  0.0mm 12 W/m2
16:13 69.6 °F /  20.9 °C 58.1 °F /  14.5 °C 29.9in /  1012.2hPa North 4mph /  6.4km/h 4mph /  6.4km/h 67% 0in /  0.0mm 9 W/m2
16:18 69.6 °F /  20.9 °C 58.1 °F /  14.5 °C 29.9in /  1011.9hPa WNW 2mph /  3.2km/h 5mph /  8km/h 67% 0in /  0.0mm 16 W/m2
16:23 69.6 °F /  20.9 °C 58.6 °F /  14.8 °C 29.9in /  1011.9hPa WSW 4mph /  6.4km/h 4mph /  6.4km/h 68% 0in /  0.0mm 11 W/m2
16:28 69.6 °F /  20.9 °C 58.6 °F /  14.8 °C 29.9in /  1011.9hPa NNW 0.9mph /  1.4km/h 4mph /  6.4km/h 68% 0in /  0.0mm 23 W/m2
16:33 69.6 °F /  20.9 °C 58.6 °F /  14.8 °C 29.9in /  1011.9hPa NNW 0.9mph /  1.4km/h 8mph /  12.9km/h 68% 0in /  0.0mm 32 W/m2
16:38 69.6 °F /  20.9 °C 58.6 °F /  14.8 °C 29.9in /  1011.9hPa WNW 0.9mph /  1.4km/h 2mph /  3.2km/h 68% 0in /  0.0mm 16 W/m2
16:43 69.4 °F /  20.8 °C 58.5 °F /  14.7 °C 29.9in /  1012.2hPa WSW 2mph /  3.2km/h 11mph /  17.7km/h 68% 0in /  0.0mm 7 W/m2
16:48 69.4 °F /  20.8 °C 58.5 °F /  14.7 °C 29.9in /  1012.2hPa Calm   2mph /  3.2km/h 68% 0in /  0.0mm 5 W/m2
16:53 69.4 °F /  20.8 °C 58.5 °F /  14.7 °C 29.9in /  1011.9hPa NNW 2mph /  3.2km/h 11mph /  17.7km/h 68% 0in /  0.0mm 5 W/m2
16:58 69.4 °F /  20.8 °C 58.5 °F /  14.7 °C 29.9in /  1012.2hPa NNE 2mph /  3.2km/h 4mph /  6.4km/h 68% 0in /  0.0mm 0 W/m2
17:03 69.3 °F /  20.7 °C 58.3 °F /  14.6 °C 29.9in /  1012.2hPa NNW 2.9mph /  4.7km/h 7mph /  11.3km/h 68% 0in /  0.0mm 0 W/m2
17:08 69.3 °F /  20.7 °C 58.3 °F /  14.6 °C 29.9in /  1012.2hPa NNE 0.9mph /  1.4km/h 6mph /  9.7km/h 68% 0in /  0.0mm 0 W/m2
17:13 69.3 °F /  20.7 °C 58.6 °F /  14.8 °C 29.9in /  1012.2hPa NW 0.9mph /  1.4km/h 3mph /  4.8km/h 69% 0in /  0.0mm 0 W/m2
17:18 69.3 °F /  20.7 °C 58.6 °F /  14.8 °C 29.9in /  1012.2hPa North 4mph /  6.4km/h 4mph /  6.4km/h 69% 0in /  0.0mm 0 W/m2
17:23 69.1 °F /  20.6 °C 58.5 °F /  14.7 °C 29.9in /  1012.2hPa WNW 0.9mph /  1.4km/h 4mph /  6.4km/h 69% 0in /  0.0mm 0 W/m2
17:28 69.1 °F /  20.6 °C 58.5 °F /  14.7 °C 29.9in /  1012.5hPa NW 2.9mph /  4.7km/h 6mph /  9.7km/h 69% 0in /  0.0mm 0 W/m2
17:33 69.1 °F /  20.6 °C 58.5 °F /  14.7 °C 29.9in /  1012.5hPa WNW 2.9mph /  4.7km/h 3mph /  4.8km/h 69% 0in /  0.0mm 0 W/m2
17:39 68.9 °F /  20.5 °C 58.3 °F /  14.6 °C 29.9in /  1012.5hPa North 2mph /  3.2km/h 2mph /  3.2km/h 69% 0in /  0.0mm 0 W/m2
17:44 68.7 °F /  20.4 °C 58.1 °F /  14.5 °C 29.9in /  1012.5hPa Calm   4mph /  6.4km/h 69% 0in /  0.0mm 0 W/m2
17:49 68.5 °F /  20.3 °C 58.8 °F /  14.9 °C 29.9in /  1012.5hPa West 2.9mph /  4.7km/h 13mph /  20.9km/h 71% 0in /  0.0mm 0 W/m2
17:54 68 °F /  20 °C 59 °F /  15 °C 29.9in /  1012.9hPa North 6mph /  9.7km/h 13mph /  20.9km/h 73% 0in /  0.0mm 0 W/m2
17:59 66.9 °F /  19.4 °C 59.9 °F /  15.5 °C 29.9in /  1012.9hPa NW 2.9mph /  4.7km/h 7mph /  11.3km/h 78% 0in /  0.0mm 0 W/m2
18:04 65.8 °F /  18.8 °C 59.9 °F /  15.5 °C 29.9in /  1012.9hPa West 4mph /  6.4km/h 12mph /  19.3km/h 81% 0in /  0.0mm 0 W/m2
18:09 65.1 °F /  18.4 °C 59.5 °F /  15.3 °C 29.9in /  1013.2hPa NW 2mph /  3.2km/h 5mph /  8km/h 82% 0in /  0.0mm 0 W/m2
18:14 64.8 °F /  18.2 °C 59.9 °F /  15.5 °C 29.9in /  1013.2hPa NW 2mph /  3.2km/h 12mph /  19.3km/h 84% 0.01in /  0.2mm 0 W/m2
18:19 64.4 °F /  18 °C 59.7 °F /  15.4 °C 29.9in /  1013.2hPa NW 4mph /  6.4km/h 5mph /  8km/h 85% 0.01in /  0.2mm 0 W/m2
18:24 64 °F /  17.8 °C 60.1 °F /  15.6 °C 29.9in /  1013.2hPa NE 2mph /  3.2km/h 9mph /  14.5km/h 87% 0.01in /  0.2mm 0 W/m2
18:29 63.9 °F /  17.7 °C 59.9 °F /  15.5 °C 29.9in /  1013.2hPa NW 4mph /  6.4km/h 9mph /  14.5km/h 87% 0.01in /  0.2mm 0 W/m2
18:34 63.9 °F /  17.7 °C 59.9 °F /  15.5 °C 29.9in /  1013.2hPa NW 4.9mph /  7.9km/h 8mph /  12.9km/h 87% 0.02in /  0.5mm 0 W/m2
18:39 63.9 °F /  17.7 °C 59.9 °F /  15.5 °C 29.9in /  1013.2hPa NW 8.9mph /  14.3km/h 9mph /  14.5km/h 87% 0.02in /  0.5mm 0 W/m2
18:44 63.9 °F /  17.7 °C 60.3 °F /  15.7 °C 29.9in /  1013.2hPa West 8.9mph /  14.3km/h 10mph /  16.1km/h 88% 0.02in /  0.5mm 0 W/m2
18:49 63.9 °F /  17.7 °C 60.3 °F /  15.7 °C 29.9in /  1013.2hPa WNW 8.1mph /  13km/h 9mph /  14.5km/h 88% 0.02in /  0.5mm 0 W/m2
18:54 63.9 °F /  17.7 °C 60.3 °F /  15.7 °C 29.9in /  1013.5hPa North 2.9mph /  4.7km/h 11mph /  17.7km/h 88% 0.02in /  0.5mm 0 W/m2
18:59 63.7 °F /  17.6 °C 60.4 °F /  15.8 °C 29.9in /  1013.5hPa WNW 10.1mph /  16.3km/h 10mph /  16.1km/h 89% 0.02in /  0.5mm 0 W/m2
19:04 63.3 °F /  17.4 °C 60.1 °F /  15.6 °C 29.9in /  1013.5hPa WNW 4mph /  6.4km/h 9mph /  14.5km/h 89% 0.02in /  0.5mm 0 W/m2
19:09 63.3 °F /  17.4 °C 60.3 °F /  15.7 °C 29.9in /  1013.5hPa NNW 4mph /  6.4km/h 8mph /  12.9km/h 90% 0.02in /  0.5mm 0 W/m2
19:14 63.1 °F /  17.3 °C 60.1 °F /  15.6 °C 29.9in /  1013.9hPa WNW 0.9mph /  1.4km/h 5mph /  8km/h 90% 0.02in /  0.5mm 0 W/m2
19:19 63 °F /  17.2 °C 60.3 °F /  15.7 °C 29.9in /  1013.9hPa NW 4.9mph /  7.9km/h 12mph /  19.3km/h 91% 0.02in /  0.5mm 0 W/m2
19:24 63 °F /  17.2 °C 60.6 °F /  15.9 °C 29.9in /  1013.9hPa West 0.9mph /  1.4km/h 6mph /  9.7km/h 92% 0.03in /  0.8mm 0 W/m2
19:29 62.8 °F /  17.1 °C 60.4 °F /  15.8 °C 30in /  1014.2hPa West 10.1mph /  16.3km/h 11mph /  17.7km/h 92% 0.04in /  1.0mm 0 W/m2
19:34 62.8 °F /  17.1 °C 60.4 °F /  15.8 °C 30in /  1014.2hPa NW 6.9mph /  11.1km/h 7mph /  11.3km/h 92% 0.04in /  1.0mm 0 W/m2
19:39 62.4 °F /  16.9 °C 59.7 °F /  15.4 °C 30in /  1014.2hPa West 2.9mph /  4.7km/h 6mph /  9.7km/h 91% 0.04in /  1.0mm 0 W/m2
19:44 62.4 °F /  16.9 °C 60.1 °F /  15.6 °C 30in /  1014.2hPa WNW 2.9mph /  4.7km/h 14mph /  22.5km/h 92% 0.04in /  1.0mm 0 W/m2
19:49 62.2 °F /  16.8 °C 59.9 °F /  15.5 °C 30in /  1014.2hPa NW 0.9mph /  1.4km/h 7mph /  11.3km/h 92% 0.04in /  1.0mm 0 W/m2
19:54 62.1 °F /  16.7 °C 59.7 °F /  15.4 °C 30in /  1014.6hPa WNW 4.9mph /  7.9km/h 14mph /  22.5km/h 92% 0.04in /  1.0mm 0 W/m2
19:59 61.9 °F /  16.6 °C 59.5 °F /  15.3 °C 30in /  1014.6hPa WNW 4mph /  6.4km/h 12mph /  19.3km/h 92% 0.05in /  1.3mm 0 W/m2
20:04 61.3 °F /  16.3 °C 59 °F /  15 °C 30in /  1014.9hPa NW 8.9mph /  14.3km/h 14mph /  22.5km/h 92% 0.06in /  1.5mm 0 W/m2
20:09 61.2 °F /  16.2 °C 58.8 °F /  14.9 °C 30in /  1015.2hPa WSW 11mph /  17.7km/h 12mph /  19.3km/h 92% 0.06in /  1.5mm 0 W/m2
20:14 60.6 °F /  15.9 °C 58.3 °F /  14.6 °C 30in /  1014.9hPa NNW 4.9mph /  7.9km/h 9mph /  14.5km/h 92% 0.06in /  1.5mm 0 W/m2
20:19 60.3 °F /  15.7 °C 57.9 °F /  14.4 °C 30in /  1015.2hPa West 8.9mph /  14.3km/h 11mph /  17.7km/h 92% 0.04in /  1.0mm 0 W/m2
20:24 59.4 °F /  15.2 °C 56.7 °F /  13.7 °C 30in /  1015.6hPa WSW 16.1mph /  25.9km/h 22mph /  35.4km/h 91% 0.04in /  1.0mm 0 W/m2
20:29 58.5 °F /  14.7 °C 55.6 °F /  13.1 °C 30in /  1015.9hPa WNW 11mph /  17.7km/h 14mph /  22.5km/h 90% 0.03in /  0.8mm 0 W/m2
20:34 57.4 °F /  14.1 °C 54.5 °F /  12.5 °C 30in /  1016.3hPa NNW 10.1mph /  16.3km/h 22mph /  35.4km/h 90% 0.03in /  0.8mm 0 W/m2
20:39 56.7 °F /  13.7 °C 53.8 °F /  12.1 °C 30in /  1016.3hPa WSW 13mph /  20.9km/h 13mph /  20.9km/h 90% 0.04in /  1.0mm 0 W/m2
20:44 56.1 °F /  13.4 °C 53.6 °F /  12 °C 30in /  1016.6hPa West 11mph /  17.7km/h 12mph /  19.3km/h 91% 0.05in /  1.3mm 0 W/m2
20:49 55.4 °F /  13 °C 52.5 °F /  11.4 °C 30in /  1016.6hPa WSW 12.1mph /  19.5km/h 16mph /  25.7km/h 90% 0.06in /  1.5mm 0 W/m2
20:54 54.9 °F /  12.7 °C 52 °F /  11.1 °C 30in /  1016.6hPa WNW 8.1mph /  13km/h 15mph /  24.1km/h 90% 0.06in /  1.5mm 0 W/m2
20:59 54.7 °F /  12.6 °C 52.2 °F /  11.2 °C 30in /  1016.9hPa WSW 16.1mph /  25.9km/h 19mph /  30.6km/h 91% 0.05in /  1.3mm 0 W/m2
Juneau County Weather
Compliments of Weather Underground - 2 mb